Time;durP1;ratioP1;P1;durP2;ratioP2;P2;SDS_P1;SDS_P2;PMS_P1;PMS_P2;Temp;Humidity;BMP_temperature;BMP_pressure;BME280_temperature;BME280_humidity;BME280_pressure;Samples;Min_cycle;Max_cycle;Signal;HPM_P1;HPM_P2
2023/08/02 00:01:09;;;;;;;8.57;3.03;;;19.50;99.90;;;;;;5005441;28;20209;-32
2023/08/02 00:03:38;;;;;;;5.72;2.50;;;19.50;99.90;;;;;;4988106;28;20225;-32
2023/08/02 00:06:06;;;;;;;4.40;2.20;;;19.50;99.90;;;;;;5004423;28;20220;-30
2023/08/02 00:08:34;;;;;;;9.77;3.03;;;19.50;99.90;;;;;;5003596;28;20316;-31
2023/08/02 00:11:18;;;;;;;5.05;2.67;;;19.50;99.90;;;;;;5006786;28;20216;-32
2023/08/02 00:13:51;;;;;;;8.77;2.83;;;19.50;99.90;;;;;;5030004;28;20223;-32
2023/08/02 00:16:18;;;;;;;3.70;2.63;;;19.50;99.90;;;;;;5030064;28;20799;-32
2023/08/02 00:18:50;;;;;;;3.92;2.50;;;19.50;99.90;;;;;;5030709;28;20558;-32
2023/08/02 00:21:25;;;;;;;5.70;2.38;;;19.50;99.90;;;;;;5031329;28;20211;-33
2023/08/02 00:23:52;;;;;;;4.35;2.50;;;19.60;99.90;;;;;;5026700;28;20225;-33
2023/08/02 00:26:22;;;;;;;5.82;2.35;;;19.60;99.90;;;;;;5027433;28;20732;-32
2023/08/02 00:28:49;;;;;;;6.50;2.70;;;19.60;99.90;;;;;;5027495;28;20221;-32
2023/08/02 00:31:18;;;;;;;4.13;2.22;;;19.60;99.90;;;;;;5027607;28;20212;-32
2023/08/02 00:33:46;;;;;;;4.35;2.55;;;19.60;99.90;;;;;;5028851;28;20760;-31
2023/08/02 00:36:13;;;;;;;5.15;2.53;;;19.60;99.90;;;;;;5027140;28;20213;-31
2023/08/02 00:38:43;;;;;;;3.67;2.30;;;19.60;99.90;;;;;;5027778;28;20244;-31
2023/08/02 00:41:10;;;;;;;6.00;2.40;;;19.60;99.90;;;;;;5027830;28;20200;-29
2023/08/02 00:43:39;;;;;;;4.15;2.50;;;19.60;99.90;;;;;;5027546;28;20200;-31
2023/08/02 00:46:12;;;;;;;4.97;2.33;;;19.70;99.90;;;;;;5028780;28;20216;-32
2023/08/02 00:48:42;;;;;;;5.40;2.45;;;19.70;99.90;;;;;;5028517;28;20216;-31
2023/08/02 00:51:15;;;;;;;3.92;2.13;;;19.70;99.90;;;;;;5028575;28;20713;-31
2023/08/02 00:53:44;;;;;;;4.93;2.47;;;19.70;99.90;;;;;;5009880;28;20300;-31
2023/08/02 00:56:14;;;;;;;5.43;2.60;;;19.70;99.90;;;;;;5028739;28;20197;-31
2023/08/02 00:58:43;;;;;;;5.28;2.25;;;19.70;99.90;;;;;;5025213;28;20583;-31
2023/08/02 01:01:13;;;;;;;3.88;2.35;;;19.70;99.90;;;;;;5028000;28;20270;-31
2023/08/02 01:03:44;;;;;;;4.17;2.10;;;19.70;99.90;;;;;;5012460;28;20686;-31
2023/08/02 01:06:29;;;;;;;5.00;2.45;;;19.70;99.90;;;;;;5020763;28;20205;-31
2023/08/02 01:09:07;;;;;;;5.25;2.70;;;19.70;99.90;;;;;;5019754;28;20869;-31
2023/08/02 01:11:44;;;;;;;4.05;2.67;;;19.70;99.90;;;;;;5028160;28;20231;-31
2023/08/02 01:14:17;;;;;;;5.30;2.65;;;19.70;99.90;;;;;;5028333;28;20222;-32
2023/08/02 01:16:48;;;;;;;4.55;2.47;;;19.70;99.90;;;;;;5014341;28;20259;-31
2023/08/02 01:19:22;;;;;;;4.68;2.95;;;19.70;99.90;;;;;;5028627;28;20236;-32
2023/08/02 01:21:50;;;;;;;6.25;2.47;;;19.80;99.90;;;;;;5034694;28;20223;-31
2023/08/02 01:24:18;;;;;;;6.07;2.85;;;19.70;99.90;;;;;;5024452;28;20205;-31
2023/08/02 01:26:49;;;;;;;4.22;2.35;;;19.70;99.90;;;;;;5027947;28;20746;-31
2023/08/02 01:29:22;;;;;;;5.13;2.40;;;19.70;99.90;;;;;;5027758;28;20228;-31
2023/08/02 01:31:54;;;;;;;5.50;2.70;;;19.70;99.90;;;;;;5026699;28;20189;-31
2023/08/02 01:34:22;;;;;;;4.28;2.50;;;19.70;99.90;;;;;;5025159;28;20217;-31
2023/08/02 01:36:50;;;;;;;4.13;2.35;;;19.70;99.90;;;;;;5010373;28;20204;-31
2023/08/02 01:39:19;;;;;;;3.47;2.50;;;19.70;99.90;;;;;;5025443;28;20241;-31
2023/08/02 01:41:46;;;;;;;4.07;2.50;;;19.70;99.90;;;;;;5026380;28;20412;-31
2023/08/02 01:44:14;;;;;;;4.43;2.45;;;19.70;99.90;;;;;;5026030;28;20761;-31
2023/08/02 01:46:41;;;;;;;3.78;2.10;;;19.70;99.90;;;;;;5027491;28;20695;-31
2023/08/02 01:49:09;;;;;;;4.88;2.42;;;19.70;99.90;;;;;;5025875;28;20228;-31
2023/08/02 01:51:36;;;;;;;3.17;2.25;;;19.80;99.90;;;;;;5025916;28;20702;-31
2023/08/02 01:54:04;;;;;;;3.55;2.25;;;19.80;99.90;;;;;;5025386;28;20240;-31
2023/08/02 01:56:36;;;;;;;3.55;2.30;;;19.80;99.90;;;;;;5026149;28;20204;-31
2023/08/02 01:59:03;;;;;;;3.58;2.30;;;19.80;99.90;;;;;;5025852;28;20230;-31
2023/08/02 02:01:30;;;;;;;3.97;2.38;;;19.80;99.90;;;;;;5019251;28;20221;-32
2023/08/02 02:03:57;;;;;;;4.10;2.38;;;19.80;99.90;;;;;;5027136;28;20213;-31
2023/08/02 02:06:32;;;;;;;4.43;2.38;;;19.80;99.90;;;;;;5027387;28;20290;-31
2023/08/02 02:08:59;;;;;;;3.47;2.10;;;19.80;99.90;;;;;;5025115;28;20651;-31
2023/08/02 02:11:26;;;;;;;4.72;2.33;;;19.80;99.90;;;;;;5025612;28;20204;-31
2023/08/02 02:13:53;;;;;;;3.05;2.05;;;19.80;99.90;;;;;;5025489;28;20220;-31
2023/08/02 02:16:20;;;;;;;5.72;2.60;;;19.80;99.90;;;;;;5026883;28;20209;-31
2023/08/02 02:18:48;;;;;;;4.07;2.58;;;19.80;99.90;;;;;;5009150;28;20236;-31
2023/08/02 02:21:17;;;;;;;4.43;2.50;;;19.80;99.90;;;;;;5027435;28;20303;-31
2023/08/02 02:23:49;;;;;;;5.00;2.60;;;19.80;99.90;;;;;;5024496;28;20204;-30
2023/08/02 02:26:19;;;;;;;4.78;2.80;;;19.80;99.90;;;;;;5009402;28;20717;-31
2023/08/02 02:28:46;;;;;;;3.88;2.40;;;19.80;99.90;;;;;;5026716;28;20216;-31
2023/08/02 02:31:13;;;;;;;3.63;2.30;;;19.80;99.90;;;;;;5026013;28;20255;-31
2023/08/02 02:33:40;;;;;;;3.67;2.40;;;19.80;99.90;;;;;;5025423;28;20196;-32
2023/08/02 02:36:08;;;;;;;3.92;2.45;;;19.80;99.90;;;;;;5009211;28;20643;-31
2023/08/02 02:38:37;;;;;;;4.95;2.80;;;19.80;99.90;;;;;;5024244;28;20294;-31
2023/08/02 02:41:09;;;;;;;4.35;2.58;;;19.80;99.90;;;;;;5026440;28;20224;-31
2023/08/02 02:43:36;;;;;;;7.40;2.42;;;19.80;99.90;;;;;;5024693;28;20233;-24
2023/08/02 02:46:09;;;;;;;5.88;2.80;;;19.80;99.90;;;;;;5024992;28;20227;-24
2023/08/02 02:48:43;;;;;;;3.35;2.33;;;19.80;99.90;;;;;;5024482;28;20764;-24
2023/08/02 02:51:14;;;;;;;4.38;2.40;;;19.80;99.90;;;;;;5024994;28;20270;-24
2023/08/02 02:53:41;;;;;;;4.43;2.65;;;19.80;99.90;;;;;;5024707;28;20730;-24
2023/08/02 02:56:09;;;;;;;5.97;2.90;;;19.80;99.90;;;;;;5004455;28;20209;-24
2023/08/02 02:58:43;;;;;;;4.55;2.85;;;19.80;99.90;;;;;;5022954;28;20306;-24
2023/08/02 03:01:11;;;;;;;6.07;3.20;;;19.80;99.90;;;;;;5008659;28;20205;-24
2023/08/02 03:03:44;;;;;;;4.80;2.80;;;19.80;99.90;;;;;;5007831;28;20272;-24
2023/08/02 03:06:17;;;;;;;5.53;3.08;;;19.80;99.90;;;;;;5008200;28;20201;-24
2023/08/02 03:08:48;;;;;;;5.40;3.03;;;19.80;99.90;;;;;;5005873;28;20303;-24
2023/08/02 03:11:16;;;;;;;4.75;2.78;;;19.80;99.90;;;;;;5006607;28;20206;-24
2023/08/02 03:13:45;;;;;;;4.20;2.60;;;19.80;99.90;;;;;;5004785;28;20292;-24
2023/08/02 03:16:15;;;;;;;6.53;2.80;;;19.80;99.90;;;;;;5006613;28;20737;-24
2023/08/02 03:18:44;;;;;;;4.05;3.08;;;19.80;99.90;;;;;;5004025;28;20488;-24
2023/08/02 03:21:12;;;;;;;4.57;3.35;;;19.80;99.90;;;;;;5004586;28;20221;-24
2023/08/02 03:23:40;;;;;;;3.92;3.10;;;19.80;99.90;;;;;;5003747;28;20723;-24
2023/08/02 03:26:08;;;;;;;4.40;3.13;;;19.80;99.90;;;;;;5004857;28;20223;-24
2023/08/02 03:28:37;;;;;;;5.97;3.22;;;19.80;99.90;;;;;;5005889;28;20198;-24
2023/08/02 03:31:07;;;;;;;9.02;3.58;;;19.80;99.90;;;;;;5006039;28;20624;-24
2023/08/02 03:33:37;;;;;;;6.35;3.40;;;19.80;99.90;;;;;;5004235;28;20205;-24
2023/08/02 03:36:06;;;;;;;4.13;3.00;;;19.80;99.90;;;;;;5005965;28;20252;-30
2023/08/02 03:38:41;;;;;;;7.85;3.30;;;19.80;99.90;;;;;;5004927;28;20237;-31
2023/08/02 03:41:13;;;;;;;4.53;3.10;;;19.80;99.90;;;;;;5020523;28;20189;-30
2023/08/02 03:43:43;;;;;;;5.40;3.13;;;19.80;99.90;;;;;;5006257;28;20734;-30
2023/08/02 03:46:11;;;;;;;4.57;2.92;;;19.80;99.90;;;;;;5004205;28;20229;-30
2023/08/02 03:48:43;;;;;;;4.78;3.33;;;19.80;99.90;;;;;;5008515;28;20198;-30
2023/08/02 03:51:10;;;;;;;5.72;3.47;;;19.80;99.90;;;;;;5006296;28;20281;-30
2023/08/02 03:53:37;;;;;;;5.60;3.33;;;19.80;99.90;;;;;;5005326;28;20432;-30
2023/08/02 03:56:04;;;;;;;4.53;3.42;;;19.80;99.90;;;;;;5005884;28;20209;-30
2023/08/02 03:58:32;;;;;;;5.53;3.40;;;19.80;99.90;;;;;;4989459;28;20202;-30
2023/08/02 04:01:01;;;;;;;5.22;3.45;;;19.80;99.90;;;;;;5004401;28;20220;-30
2023/08/02 04:03:33;;;;;;;4.45;3.30;;;19.80;99.90;;;;;;5005368;28;20216;-30
2023/08/02 04:06:00;;;;;;;4.38;3.08;;;19.80;99.90;;;;;;5004414;28;20202;-30
2023/08/02 04:08:27;;;;;;;4.95;3.20;;;19.80;99.90;;;;;;5003107;28;20213;-30
2023/08/02 04:11:03;;;;;;;3.63;2.85;;;19.80;99.90;;;;;;5003761;28;20217;-30
2023/08/02 04:13:33;;;;;;;5.32;3.03;;;19.80;99.90;;;;;;5003623;28;20212;-30
2023/08/02 04:16:01;;;;;;;4.93;3.10;;;19.70;99.90;;;;;;5005398;28;20705;-30
2023/08/02 04:18:31;;;;;;;4.05;2.67;;;19.70;99.90;;;;;;5004127;28;20691;-30
2023/08/02 04:20:59;;;;;;;5.32;3.20;;;19.70;99.90;;;;;;5005679;28;20225;-30
2023/08/02 04:23:30;;;;;;;3.65;2.97;;;19.70;99.90;;;;;;5004606;28;20229;-30
2023/08/02 04:26:05;;;;;;;5.35;3.10;;;19.70;99.90;;;;;;5003967;28;20218;-30
2023/08/02 04:28:33;;;;;;;6.95;3.50;;;19.70;99.90;;;;;;5005169;28;20209;-31
2023/08/02 04:31:02;;;;;;;6.80;3.35;;;19.70;99.90;;;;;;5003917;28;20225;-30
2023/08/02 04:33:29;;;;;;;4.13;2.70;;;19.70;99.90;;;;;;5005019;28;20279;-30
2023/08/02 04:36:00;;;;;;;6.85;2.90;;;19.70;99.90;;;;;;5005180;28;20703;-30
2023/08/02 04:38:30;;;;;;;5.10;3.00;;;19.70;99.90;;;;;;5004269;28;20600;-30
2023/08/02 04:40:58;;;;;;;4.03;2.75;;;19.70;99.90;;;;;;5005178;28;20284;-30
2023/08/02 04:43:25;;;;;;;3.78;2.58;;;19.70;99.90;;;;;;5008923;28;20205;-30
2023/08/02 04:45:53;;;;;;;2.83;2.58;;;19.70;99.90;;;;;;5007090;28;20213;-30
2023/08/02 04:48:26;;;;;;;4.03;2.80;;;19.70;99.90;;;;;;5005157;28;20576;-30
2023/08/02 04:50:53;;;;;;;3.78;2.60;;;19.70;99.90;;;;;;5005674;28;20233;-30
2023/08/02 04:53:25;;;;;;;5.93;2.65;;;19.70;99.90;;;;;;5004493;28;20234;-31
2023/08/02 04:56:00;;;;;;;4.85;2.55;;;19.70;99.90;;;;;;5005809;28;20209;-30
2023/08/02 04:58:27;;;;;;;3.15;2.50;;;19.70;99.90;;;;;;5004548;28;20213;-30
2023/08/02 05:00:59;;;;;;;3.28;2.15;;;19.70;99.90;;;;;;5022604;28;20202;-24
2023/08/02 05:03:26;;;;;;;3.65;2.40;;;19.70;99.90;;;;;;5008436;28;20291;-24
2023/08/02 05:06:01;;;;;;;4.20;2.40;;;19.70;99.90;;;;;;5020355;28;20325;-24
2023/08/02 05:08:34;;;;;;;3.65;2.63;;;19.70;99.90;;;;;;5028205;28;20204;-24
2023/08/02 05:11:05;;;;;;;3.83;2.92;;;19.70;99.90;;;;;;5026341;28;20699;-24
2023/08/02 05:13:33;;;;;;;2.80;2.30;;;19.70;99.90;;;;;;5032305;28;20200;-24
2023/08/02 05:16:00;;;;;;;3.30;2.42;;;19.70;99.90;;;;;;5025084;28;20701;-24
2023/08/02 05:18:30;;;;;;;2.88;2.30;;;19.70;99.90;;;;;;5022138;28;20202;-24
2023/08/02 05:20:58;;;;;;;2.88;2.25;;;19.70;99.90;;;;;;5018965;28;20206;-24
2023/08/02 05:23:25;;;;;;;3.38;2.58;;;19.70;99.90;;;;;;5014326;28;20272;-24
2023/08/02 05:25:55;;;;;;;3.13;2.15;;;19.70;99.90;;;;;;5006302;28;20391;-24
2023/08/02 05:28:25;;;;;;;3.25;2.47;;;19.70;99.90;;;;;;5012432;28;20213;-24
2023/08/02 05:30:53;;;;;;;4.18;2.10;;;19.70;99.90;;;;;;5027164;28;20228;-24
2023/08/02 05:33:20;;;;;;;3.10;1.90;;;19.70;99.90;;;;;;5027895;28;20247;-24
2023/08/02 05:35:47;;;;;;;2.97;2.25;;;19.70;99.90;;;;;;5017741;28;20201;-24
2023/08/02 05:38:16;;;;;;;4.13;2.13;;;19.70;99.90;;;;;;5009345;28;20817;-24
2023/08/02 05:40:49;;;;;;;4.32;2.10;;;19.70;99.90;;;;;;5008341;28;20402;-24
2023/08/02 05:43:16;;;;;;;2.60;2.10;;;19.70;99.90;;;;;;5008351;28;20570;-23
2023/08/02 05:45:52;;;;;;;2.15;1.95;;;19.70;99.90;;;;;;5007043;28;20236;-24
2023/08/02 05:48:22;;;;;;;2.25;1.77;;;19.70;99.90;;;;;;5005337;28;20216;-24
2023/08/02 05:50:49;;;;;;;2.70;1.80;;;19.70;99.90;;;;;;5016694;28;20244;-24
2023/08/02 05:53:19;;;;;;;3.08;1.90;;;19.70;99.90;;;;;;5016327;28;20209;-24
2023/08/02 05:55:46;;;;;;;2.50;1.80;;;19.70;99.90;;;;;;5010302;28;20194;-24
2023/08/02 05:58:16;;;;;;;1.63;1.52;;;19.70;99.90;;;;;;5010834;28;20333;-23
2023/08/02 06:00:43;;;;;;;2.85;2.15;;;19.80;99.90;;;;;;5021676;28;20267;-24
2023/08/02 06:03:13;;;;;;;2.20;1.70;;;19.80;99.90;;;;;;5026440;28;20208;-24
2023/08/02 06:05:40;;;;;;;1.98;1.38;;;19.80;99.90;;;;;;5012036;28;20595;-24
2023/08/02 06:08:07;;;;;;;1.75;1.20;;;19.80;99.90;;;;;;5010184;28;20271;-24
2023/08/02 06:10:40;;;;;;;1.02;0.95;;;19.80;99.90;;;;;;5027292;28;20263;-24
2023/08/02 06:13:09;;;;;;;1.20;1.10;;;19.80;99.90;;;;;;5028612;28;20217;-24
2023/08/02 06:15:36;;;;;;;1.48;0.98;;;19.90;99.90;;;;;;5027886;28;20220;-24
2023/08/02 06:18:03;;;;;;;0.90;0.90;;;19.90;99.90;;;;;;5010850;28;20623;-24
2023/08/02 06:20:33;;;;;;;1.70;0.90;;;19.90;99.90;;;;;;5013168;28;20229;-24
2023/08/02 06:23:01;;;;;;;0.65;0.60;;;19.90;99.90;;;;;;5020715;28;20225;-24
2023/08/02 06:25:33;;;;;;;0.80;0.60;;;19.90;99.90;;;;;;5030079;28;20212;-24
2023/08/02 06:28:05;;;;;;;0.50;0.40;;;20.00;99.90;;;;;;5037616;28;20232;-24
2023/08/02 06:30:34;;;;;;;2.03;0.60;;;20.00;99.90;;;;;;5026699;28;20259;-24
2023/08/02 06:33:02;;;;;;;0.65;0.50;;;20.00;99.90;;;;;;5026851;28;20299;-23
2023/08/02 06:35:29;;;;;;;0.40;0.40;;;20.00;99.90;;;;;;5025671;28;20675;-24
2023/08/02 06:37:58;;;;;;;1.98;0.60;;;20.10;99.90;;;;;;5024212;28;20245;-24
2023/08/02 06:40:26;;;;;;;0.40;0.40;;;20.10;99.90;;;;;;5045456;28;20744;-24
2023/08/02 06:42:53;;;;;;;0.80;0.50;;;20.10;99.90;;;;;;5023398;28;20211;-24
2023/08/02 06:45:22;;;;;;;0.30;0.30;;;20.10;99.90;;;;;;5008387;28;20213;-24
2023/08/02 06:47:49;;;;;;;1.10;0.40;;;20.20;99.90;;;;;;5016061;28;20623;-24
2023/08/02 06:50:22;;;;;;;0.80;0.40;;;20.20;99.90;;;;;;5029036;28;20220;-24
2023/08/02 06:52:49;;;;;;;0.88;0.40;;;20.30;99.90;;;;;;5024742;28;20298;-24
2023/08/02 06:55:21;;;;;;;0.30;0.30;;;20.30;99.90;;;;;;5019205;28;20233;-24
2023/08/02 06:57:50;;;;;;;0.47;0.40;;;20.30;99.90;;;;;;5011353;28;20690;-23
2023/08/02 07:00:20;;;;;;;0.52;0.30;;;20.40;99.90;;;;;;5016181;28;20205;-24
2023/08/02 07:02:49;;;;;;;1.67;0.38;;;20.40;99.90;;;;;;5024996;28;20198;-24
2023/08/02 07:05:16;;;;;;;1.52;0.50;;;20.40;99.90;;;;;;5007900;28;20225;-24
2023/08/02 07:07:43;;;;;;;4.32;0.40;;;20.50;99.90;;;;;;5015722;28;20692;-23
2023/08/02 07:10:11;;;;;;;2.60;0.45;;;20.50;99.90;;;;;;5004245;28;20233;-24
2023/08/02 07:12:43;;;;;;;3.10;0.60;;;20.60;99.90;;;;;;5021391;28;20674;-24
2023/08/02 07:15:10;;;;;;;6.32;1.20;;;20.60;99.90;;;;;;5025553;28;20225;-23
2023/08/02 07:17:38;;;;;;;45.17;7.43;;;20.70;99.90;;;;;;5010298;28;20225;-24
2023/08/02 07:20:10;;;;;;;13.95;2.65;;;20.70;99.90;;;;;;5025616;28;20738;-24
2023/08/02 07:22:45;;;;;;;9.95;1.90;;;20.70;99.90;;;;;;5017084;28;20293;-24
2023/08/02 07:25:15;;;;;;;18.45;3.20;;;20.80;99.90;;;;;;5009207;28;20370;-24
2023/08/02 07:27:44;;;;;;;28.08;4.65;;;20.80;99.90;;;;;;5027072;28;20277;-24
2023/08/02 07:30:13;;;;;;;24.27;4.15;;;20.90;99.90;;;;;;5024225;28;20278;-24
2023/08/02 07:32:43;;;;;;;13.38;2.50;;;20.90;99.90;;;;;;4994426;28;20295;-24
2023/08/02 07:35:10;;;;;;;5.22;1.00;;;21.00;99.90;;;;;;5020297;28;20236;-24
2023/08/02 07:37:37;;;;;;;6.05;0.90;;;21.10;99.90;;;;;;5008936;28;20224;-24
2023/08/02 07:40:05;;;;;;;0.85;0.30;;;21.10;99.90;;;;;;5009056;28;20217;-24
2023/08/02 07:42:33;;;;;;;2.67;0.63;;;21.20;99.90;;;;;;5014970;28;20717;-24
2023/08/02 07:45:06;;;;;;;0.55;0.22;;;21.30;99.90;;;;;;5020478;28;20205;-24
2023/08/02 07:47:34;;;;;;;0.60;0.32;;;21.40;99.90;;;;;;5028883;28;20196;-24
2023/08/02 07:50:05;;;;;;;0.88;0.20;;;21.50;99.90;;;;;;5043900;28;20231;-24
2023/08/02 07:52:35;;;;;;;2.30;0.32;;;21.50;99.90;;;;;;5037887;28;20220;-24
2023/08/02 07:55:02;;;;;;;1.60;0.20;;;21.60;99.90;;;;;;5019966;28;20196;-24
2023/08/02 07:57:34;;;;;;;1.42;0.35;;;21.70;99.90;;;;;;5022565;28;20204;-24
2023/08/02 08:00:04;;;;;;;0.20;0.20;;;21.80;99.90;;;;;;5017461;28;20212;-24
2023/08/02 08:02:31;;;;;;;0.73;0.22;;;21.80;99.90;;;;;;5032747;28;20209;-24
2023/08/02 08:04:59;;;;;;;0.90;0.30;;;21.90;99.90;;;;;;5022418;28;20209;-24
2023/08/02 08:07:26;;;;;;;0.85;0.30;;;22.00;99.90;;;;;;5019767;28;20310;-24
2023/08/02 08:09:53;;;;;;;0.20;0.20;;;22.00;99.90;;;;;;5014220;28;20778;-24
2023/08/02 08:12:20;;;;;;;1.92;0.40;;;22.00;99.90;;;;;;4991121;28;20210;-24
2023/08/02 08:14:47;;;;;;;1.13;0.20;;;22.10;99.90;;;;;;5025116;28;20594;-24
2023/08/02 08:17:17;;;;;;;0.90;0.32;;;22.10;99.90;;;;;;5015731;28;20213;-22
2023/08/02 08:19:45;;;;;;;0.82;0.57;;;22.20;99.90;;;;;;5006581;28;20205;-24
2023/08/02 08:22:15;;;;;;;2.45;0.40;;;22.20;99.90;;;;;;5017389;28;20213;-24
2023/08/02 08:24:44;;;;;;;2.33;0.50;;;22.30;99.90;;;;;;5006362;28;20201;-24
2023/08/02 08:27:14;;;;;;;1.75;0.32;;;22.30;99.90;;;;;;5008769;28;20204;-24
2023/08/02 08:29:41;;;;;;;1.85;0.20;;;22.30;99.90;;;;;;5029109;28;20243;-24
2023/08/02 08:32:08;;;;;;;0.95;0.30;;;22.40;99.90;;;;;;5004061;28;20225;-24
2023/08/02 08:34:36;;;;;;;1.92;0.17;;;22.40;99.90;;;;;;5010638;28;20213;-24
2023/08/02 08:37:08;;;;;;;1.42;0.30;;;22.50;99.90;;;;;;5009861;28;20552;-24
2023/08/02 08:39:37;;;;;;;5.57;0.40;;;22.60;99.90;;;;;;5010712;28;20586;-23
2023/08/02 08:42:09;;;;;;;2.45;0.50;;;22.60;99.90;;;;;;5025337;28;20200;-24
2023/08/02 08:44:37;;;;;;;0.40;0.20;;;22.70;99.90;;;;;;5008838;28;20248;-24
2023/08/02 08:47:06;;;;;;;0.57;0.20;;;22.70;99.90;;;;;;5009528;28;20737;-23
2023/08/02 08:49:33;;;;;;;0.73;0.20;;;22.80;99.90;;;;;;5020621;28;20679;-30
2023/08/02 08:52:10;;;;;;;1.33;0.20;;;22.80;99.90;;;;;;5028782;28;20216;-30
2023/08/02 08:54:38;;;;;;;1.30;0.20;;;22.80;99.90;;;;;;5012713;28;20460;-24
2023/08/02 08:57:08;;;;;;;0.30;0.28;;;22.90;99.90;;;;;;5019831;28;20650;-23
2023/08/02 08:59:39;;;;;;;2.45;0.40;;;22.90;99.90;;;;;;5020626;28;20212;-24
2023/08/02 09:02:09;;;;;;;0.55;0.30;;;23.00;99.90;;;;;;5038713;28;20248;-23
2023/08/02 09:04:36;;;;;;;0.20;0.20;;;23.00;99.90;;;;;;5021599;28;20217;-23
2023/08/02 09:07:06;;;;;;;0.47;0.20;;;23.10;99.90;;;;;;5010354;28;20721;-23
2023/08/02 09:09:35;;;;;;;0.80;0.20;;;23.20;99.90;;;;;;5016407;28;20550;-23
2023/08/02 09:12:07;;;;;;;0.20;0.20;;;23.30;99.90;;;;;;5029394;28;20244;-24
2023/08/02 09:14:34;;;;;;;0.43;0.40;;;23.30;99.90;;;;;;5035202;28;20212;-23
2023/08/02 09:17:04;;;;;;;0.25;0.25;;;23.30;99.90;;;;;;5047813;28;20204;-24
2023/08/02 09:19:36;;;;;;;0.43;0.30;;;23.40;99.90;;;;;;5018201;28;20273;-23
2023/08/02 09:22:14;;;;;;;0.40;0.30;;;23.40;99.90;;;;;;5021598;28;20209;-23
2023/08/02 09:24:44;;;;;;;0.85;0.20;;;23.50;99.90;;;;;;5014037;28;20209;-23
2023/08/02 09:27:17;;;;;;;0.47;0.43;;;23.50;99.90;;;;;;5039115;28;20201;-23
2023/08/02 09:29:53;;;;;;;1.13;0.40;;;23.50;99.90;;;;;;5025819;28;20225;-24
2023/08/02 09:32:22;;;;;;;1.65;0.40;;;23.60;99.90;;;;;;5009949;28;20233;-23
2023/08/02 09:34:52;;;;;;;1.00;0.50;;;23.60;99.90;;;;;;5028998;28;20292;-23
2023/08/02 09:37:36;;;;;;;1.67;0.55;;;23.60;99.90;;;;;;5015724;28;20296;-23
2023/08/02 09:40:09;;;;;;;1.35;0.30;;;23.70;99.90;;;;;;5007395;28;20205;-23
2023/08/02 09:42:37;;;;;;;0.43;0.30;;;23.70;99.90;;;;;;5016272;28;20288;-23
2023/08/02 09:45:04;;;;;;;0.55;0.40;;;23.70;99.90;;;;;;5013735;28;20205;-23
2023/08/02 09:47:32;;;;;;;2.58;0.40;;;23.80;99.90;;;;;;5022478;28;20656;-23
2023/08/02 09:50:09;;;;;;;0.75;0.20;;;23.80;99.90;;;;;;5021138;28;20198;-24
2023/08/02 09:52:40;;;;;;;1.40;0.32;;;23.70;99.90;;;;;;5017244;28;20715;-23
2023/08/02 09:55:12;;;;;;;1.13;0.52;;;23.70;99.90;;;;;;5023525;28;20213;-23
2023/08/02 09:57:45;;;;;;;3.03;0.80;;;23.70;99.90;;;;;;5027279;28;20204;-23
2023/08/02 10:00:14;;;;;;;2.67;0.60;;;23.70;99.90;;;;;;5002832;28;20213;-23
2023/08/02 10:02:41;;;;;;;4.53;0.93;;;23.70;99.90;;;;;;5021084;28;20301;-23
2023/08/02 10:05:19;;;;;;;2.13;0.88;;;23.60;99.90;;;;;;5013507;28;20220;-23
2023/08/02 10:07:53;;;;;;;3.40;0.63;;;23.60;99.90;;;;;;5011774;28;20304;-23
2023/08/02 10:10:30;;;;;;;6.63;1.20;;;23.60;99.90;;;;;;5007490;28;20201;-23
2023/08/02 10:13:27;;;;;;;8.35;1.17;;;23.50;99.90;;;;;;5010259;28;20208;-23
2023/08/02 10:15:57;;;;;;;2.90;0.65;;;23.50;99.90;;;;;;5008987;28;20229;-23
2023/08/02 10:18:25;;;;;;;1.73;0.50;;;23.50;99.90;;;;;;5012145;28;20581;-23
2023/08/02 10:20:54;;;;;;;1.50;0.45;;;23.50;99.90;;;;;;5010337;28;20233;-23
2023/08/02 10:23:21;;;;;;;2.20;0.50;;;23.60;99.90;;;;;;5015711;28;20209;-23
2023/08/02 10:25:49;;;;;;;1.98;0.60;;;23.60;99.90;;;;;;5022006;28;20528;-23
2023/08/02 10:28:19;;;;;;;3.47;0.88;;;23.60;99.90;;;;;;5012338;28;20205;-23
2023/08/02 10:30:47;;;;;;;1.70;0.68;;;23.60;99.90;;;;;;5027934;28;20225;-23
2023/08/02 10:33:23;;;;;;;3.70;0.77;;;23.60;99.90;;;;;;5016181;28;20280;-23
2023/08/02 10:36:05;;;;;;;0.85;0.40;;;23.60;99.90;;;;;;5034292;28;20254;-23
2023/08/02 10:38:38;;;;;;;1.35;0.57;;;23.70;99.90;;;;;;5027456;28;20582;-23
2023/08/02 10:41:10;;;;;;;2.60;0.70;;;23.70;99.90;;;;;;5028609;28;20239;-23
2023/08/02 10:44:00;;;;;;;1.58;0.77;;;23.70;99.90;;;;;;5007885;28;20235;-23
2023/08/02 10:46:34;;;;;;;1.85;0.80;;;23.70;99.90;;;;;;5024021;28;20251;-23
2023/08/02 10:49:13;;;;;;;3.92;1.17;;;23.70;99.90;;;;;;5026515;28;20215;-23
2023/08/02 10:51:42;;;;;;;2.70;1.20;;;23.60;99.90;;;;;;5024637;28;20698;-23
2023/08/02 10:54:25;;;;;;;4.47;1.17;;;23.60;99.90;;;;;;5022867;28;20197;-23
2023/08/02 10:57:03;;;;;;;5.60;1.50;;;23.50;99.90;;;;;;5008063;28;20213;-23
2023/08/02 10:59:30;;;;;;;5.55;1.50;;;23.50;99.90;;;;;;5006577;28;20204;-23
2023/08/02 11:02:00;;;;;;;4.63;1.50;;;23.40;99.90;;;;;;5021207;28;20778;-23
2023/08/02 11:04:30;;;;;;;4.53;1.75;;;23.30;99.90;;;;;;5010200;28;20736;-23
2023/08/02 11:07:12;;;;;;;7.97;2.35;;;23.20;99.90;;;;;;5017559;28;20204;-23
2023/08/02 11:09:56;;;;;;;8.15;1.50;;;23.10;99.90;;;;;;5022814;28;20225;-23
2023/08/02 11:12:28;;;;;;;6.65;1.80;;;23.10;99.90;;;;;;4994527;28;20310;-23
2023/08/02 11:14:55;;;;;;;4.78;1.67;;;23.00;99.90;;;;;;5025443;28;20267;-23
2023/08/02 11:17:24;;;;;;;5.60;1.55;;;23.00;99.90;;;;;;4990550;28;20208;-23
2023/08/02 11:19:54;;;;;;;6.55;1.70;;;23.00;99.90;;;;;;5007678;28;20589;-23
2023/08/02 11:22:25;;;;;;;7.07;1.98;;;22.90;99.90;;;;;;5024266;28;20225;-28
2023/08/02 11:24:54;;;;;;;5.28;1.88;;;22.90;99.90;;;;;;5012140;28;20220;-28
2023/08/02 11:27:27;;;;;;;6.32;2.30;;;22.90;99.90;;;;;;5020700;28;20709;-28
2023/08/02 11:30:01;;;;;;;8.40;1.73;;;22.90;99.90;;;;;;5024916;28;20216;-28
2023/08/02 11:32:30;;;;;;;7.82;2.10;;;22.90;99.90;;;;;;5021311;28;20688;-28
2023/08/02 11:34:59;;;;;;;9.90;2.20;;;22.90;99.90;;;;;;5007447;28;20229;-28
2023/08/02 11:37:27;;;;;;;6.97;1.95;;;22.90;99.90;;;;;;5006997;28;20657;-28
2023/08/02 11:39:56;;;;;;;7.38;2.58;;;22.80;99.90;;;;;;5014981;28;20215;-28
2023/08/02 11:42:29;;;;;;;9.18;2.53;;;22.80;99.90;;;;;;5017261;28;20713;-28
2023/08/02 11:44:59;;;;;;;5.90;2.00;;;22.80;99.90;;;;;;5016360;28;20209;-28
2023/08/02 11:47:46;;;;;;;6.97;1.98;;;22.70;99.90;;;;;;5019202;28;20324;-28
2023/08/02 11:50:26;;;;;;;7.32;2.63;;;22.70;99.90;;;;;;5023784;28;20580;-29
2023/08/02 11:53:03;;;;;;;12.25;2.30;;;22.70;99.90;;;;;;5024584;28;20586;-28
2023/08/02 11:55:38;;;;;;;7.18;2.10;;;22.70;99.90;;;;;;5026889;28;20585;-28
2023/08/02 11:58:07;;;;;;;5.68;2.10;;;22.70;99.90;;;;;;5013693;28;20209;-28
2023/08/02 12:00:38;;;;;;;8.60;2.53;;;22.70;99.90;;;;;;5013032;28;20213;-23
2023/08/02 12:03:13;;;;;;;9.40;2.40;;;22.70;99.90;;;;;;5023325;28;20295;-23
2023/08/02 12:05:43;;;;;;;5.72;2.42;;;22.70;99.90;;;;;;5017713;28;20314;-23
2023/08/02 12:08:17;;;;;;;8.43;2.63;;;22.70;99.90;;;;;;5013168;28;20305;-23
2023/08/02 12:10:48;;;;;;;6.80;2.40;;;22.70;99.90;;;;;;5012910;28;20668;-23
2023/08/02 12:13:19;;;;;;;7.40;1.88;;;22.70;99.90;;;;;;5017746;28;20759;-23
2023/08/02 12:16:06;;;;;;;6.05;1.92;;;22.60;99.90;;;;;;5018455;28;20209;-23
2023/08/02 12:18:54;;;;;;;7.72;2.22;;;22.70;99.90;;;;;;5013576;28;20213;-24
2023/08/02 12:21:27;;;;;;;3.58;1.50;;;22.60;99.90;;;;;;5027246;28;20259;-23
2023/08/02 12:23:56;;;;;;;6.47;1.73;;;22.60;99.90;;;;;;5024877;28;20327;-23
2023/08/02 12:26:44;;;;;;;4.47;1.50;;;22.60;99.90;;;;;;5008954;28;20274;-28
2023/08/02 12:29:22;;;;;;;6.60;1.63;;;22.60;99.90;;;;;;5022698;28;20675;-29
2023/08/02 12:31:55;;;;;;;4.90;1.90;;;22.60;99.90;;;;;;5025411;28;20716;-29
2023/08/02 12:34:27;;;;;;;6.03;1.67;;;22.60;99.90;;;;;;5023709;28;20699;-29
2023/08/02 12:36:59;;;;;;;5.47;1.50;;;22.60;99.90;;;;;;5023329;28;20209;-29
2023/08/02 12:39:26;;;;;;;16.85;1.85;;;22.50;99.90;;;;;;5012164;28;20228;-23
2023/08/02 12:41:53;;;;;;;7.45;1.70;;;22.50;99.90;;;;;;5017780;28;20664;-24
2023/08/02 12:44:23;;;;;;;5.07;1.58;;;22.60;99.90;;;;;;5024624;28;20355;-23
2023/08/02 12:46:53;;;;;;;5.47;1.88;;;22.60;99.90;;;;;;5030415;28;20207;-23
2023/08/02 12:49:23;;;;;;;6.10;1.73;;;22.70;99.90;;;;;;5020672;28;20216;-23
2023/08/02 12:51:50;;;;;;;3.28;1.13;;;22.70;99.90;;;;;;5008667;28;20276;-23
2023/08/02 12:54:17;;;;;;;5.40;1.50;;;22.70;99.90;;;;;;5007333;28;20301;-29
2023/08/02 12:56:47;;;;;;;7.25;1.60;;;22.60;99.90;;;;;;5022874;28;20216;-29
2023/08/02 12:59:17;;;;;;;6.70;1.73;;;22.60;99.90;;;;;;5013311;28;21605;-29
2023/08/02 13:01:44;;;;;;;7.20;1.60;;;22.60;99.90;;;;;;5022104;28;20221;-29